Time;durP1;ratioP1;P1;durP2;ratioP2;P2;SDS_P1;SDS_P2;PMS_P1;PMS_P2;Temp;Humidity;BMP_temperature;BMP_pressure;BME280_temperature;BME280_humidity;BME280_pressure;Samples;Min_cycle;Max_cycle;Signal;HPM_P1;HPM_P2
2021/07/31 00:01:01;;;;;;;7.57;7.37;;;24.60;95.90;;;;;;3535657;40;20478;-61
2021/07/31 00:03:29;;;;;;;7.10;6.90;;;24.70;95.90;;;;;;3536434;40;20474;-61
2021/07/31 00:05:56;;;;;;;7.93;7.63;;;24.60;95.90;;;;;;3536663;40;20467;-61
2021/07/31 00:08:24;;;;;;;7.60;7.40;;;24.60;95.90;;;;;;3536442;40;20478;-61
2021/07/31 00:10:52;;;;;;;7.60;7.40;;;24.70;95.90;;;;;;3534869;40;20474;-61
2021/07/31 00:13:20;;;;;;;7.10;6.90;;;24.60;95.90;;;;;;3528983;40;20482;-61
2021/07/31 00:15:47;;;;;;;7.30;7.10;;;24.60;95.90;;;;;;3536537;40;20486;-60
2021/07/31 00:18:16;;;;;;;7.60;7.40;;;24.60;95.80;;;;;;3535997;40;20451;-61
2021/07/31 00:20:44;;;;;;;7.50;7.30;;;24.60;95.90;;;;;;3535996;40;20481;-60
2021/07/31 00:23:11;;;;;;;7.50;7.30;;;24.60;95.80;;;;;;3543474;40;20543;-61
2021/07/31 00:25:39;;;;;;;7.00;6.80;;;24.60;95.90;;;;;;3536793;40;20522;-62
2021/07/31 00:28:13;;;;;;;7.30;7.10;;;24.60;95.80;;;;;;3536347;40;20454;-60
2021/07/31 00:30:41;;;;;;;7.53;7.33;;;24.60;95.90;;;;;;3537304;40;20490;-60
2021/07/31 00:33:09;;;;;;;7.13;6.93;;;24.60;95.90;;;;;;3537120;40;20492;-61
2021/07/31 00:35:36;;;;;;;7.40;7.20;;;24.60;95.90;;;;;;3537093;40;20703;-60
2021/07/31 00:38:03;;;;;;;7.73;7.43;;;24.60;95.80;;;;;;3536540;40;20621;-61
2021/07/31 00:40:30;;;;;;;7.33;7.13;;;24.60;95.90;;;;;;3537163;40;20462;-60
2021/07/31 00:43:07;;;;;;;7.37;7.17;;;24.60;95.90;;;;;;3537512;40;20795;-63
2021/07/31 00:45:35;;;;;;;7.07;6.87;;;24.60;95.90;;;;;;3537400;40;20475;-62
2021/07/31 00:48:05;;;;;;;7.47;7.27;;;24.70;96.20;;;;;;3544147;40;20826;-62
2021/07/31 00:50:33;;;;;;;7.30;7.10;;;24.60;95.90;;;;;;3537846;40;20797;-62
2021/07/31 00:53:01;;;;;;;7.33;7.13;;;24.60;95.80;;;;;;3537577;40;20473;-62
2021/07/31 00:55:30;;;;;;;7.33;7.13;;;24.60;95.80;;;;;;3528887;40;20880;-61
2021/07/31 00:57:58;;;;;;;7.10;6.90;;;24.60;95.90;;;;;;3544615;40;20455;-61
2021/07/31 01:00:37;;;;;;;7.10;6.90;;;24.60;95.90;;;;;;3537375;40;20588;-61
2021/07/31 01:03:05;;;;;;;7.33;7.13;;;24.60;95.80;;;;;;3537841;40;20467;-61
2021/07/31 01:05:35;;;;;;;7.33;7.13;;;24.60;95.90;;;;;;3537339;40;20658;-62
2021/07/31 01:08:03;;;;;;;7.10;6.90;;;24.60;95.90;;;;;;3533651;40;20535;-61
2021/07/31 01:10:32;;;;;;;7.10;6.90;;;24.60;95.90;;;;;;3528212;40;20523;-61
2021/07/31 01:12:59;;;;;;;7.40;7.20;;;24.60;95.90;;;;;;3528161;40;20554;-61
2021/07/31 01:15:28;;;;;;;7.27;7.07;;;24.60;95.90;;;;;;3527191;40;20528;-62
2021/07/31 01:17:55;;;;;;;7.30;7.10;;;24.60;95.90;;;;;;3526443;40;20460;-62
2021/07/31 01:20:24;;;;;;;7.10;6.90;;;24.60;95.90;;;;;;3528160;40;20574;-62
2021/07/31 01:23:01;;;;;;;7.03;6.83;;;24.60;95.90;;;;;;3519772;40;20692;-62
2021/07/31 01:25:29;;;;;;;6.70;6.50;;;24.60;95.90;;;;;;3528017;40;20776;-61
2021/07/31 01:27:56;;;;;;;6.87;6.67;;;24.60;95.90;;;;;;3527649;40;20460;-60
2021/07/31 01:30:23;;;;;;;7.20;7.00;;;24.60;95.90;;;;;;3527973;40;20472;-61
2021/07/31 01:32:52;;;;;;;7.10;6.90;;;24.60;95.90;;;;;;3510219;40;20480;-62
2021/07/31 01:35:20;;;;;;;7.40;7.20;;;24.60;95.90;;;;;;3526449;40;20877;-62
2021/07/31 01:37:48;;;;;;;7.20;7.00;;;24.60;95.90;;;;;;3527152;40;20877;-62
2021/07/31 01:40:18;;;;;;;7.50;7.30;;;24.60;95.80;;;;;;3526350;40;20736;-62
2021/07/31 01:42:46;;;;;;;7.40;7.20;;;24.60;95.90;;;;;;3518327;40;20464;-62
2021/07/31 01:45:15;;;;;;;7.10;6.90;;;24.60;95.80;;;;;;3527447;40;20474;-62
2021/07/31 01:47:44;;;;;;;7.10;6.90;;;24.60;95.90;;;;;;3535041;40;20679;-62
2021/07/31 01:50:13;;;;;;;7.40;7.20;;;24.60;95.90;;;;;;3527841;40;21016;-62
2021/07/31 01:52:50;;;;;;;7.53;7.33;;;24.60;95.90;;;;;;3527609;40;20489;-62
2021/07/31 01:55:20;;;;;;;7.27;7.07;;;24.60;95.80;;;;;;3527834;40;20466;-61
2021/07/31 01:57:53;;;;;;;7.50;7.30;;;24.60;95.90;;;;;;3527630;40;20455;-61
2021/07/31 02:00:20;;;;;;;7.40;7.20;;;24.60;95.80;;;;;;3527792;40;20670;-61
2021/07/31 02:03:04;;;;;;;7.10;6.90;;;24.60;95.90;;;;;;3520211;40;20472;-61
2021/07/31 02:05:38;;;;;;;7.27;7.07;;;24.60;95.80;;;;;;3534660;40;20479;-62
2021/07/31 02:08:08;;;;;;;7.40;7.20;;;24.60;95.80;;;;;;3538564;40;20503;-61
2021/07/31 02:10:55;;;;;;;7.30;7.10;;;24.60;95.90;;;;;;3536447;40;20466;-62
2021/07/31 02:13:23;;;;;;;7.40;7.20;;;24.60;95.80;;;;;;3536728;40;20490;-62
2021/07/31 02:15:52;;;;;;;7.27;7.07;;;24.60;95.80;;;;;;3537511;40;20486;-61
2021/07/31 02:18:29;;;;;;;7.00;6.80;;;24.60;95.80;;;;;;3544438;40;20821;-61
2021/07/31 02:20:57;;;;;;;7.27;7.07;;;24.60;95.80;;;;;;3537587;40;20451;-61
2021/07/31 02:23:59;;;;;;;7.10;6.90;;;24.60;95.80;;;;;;3534963;40;20486;-62
2021/07/31 02:26:50;;;;;;;7.50;7.30;;;24.60;95.80;;;;;;3536474;40;20534;-61
2021/07/31 02:29:22;;;;;;;7.20;7.00;;;24.60;95.80;;;;;;3537417;40;20482;-62
2021/07/31 02:31:51;;;;;;;7.13;6.93;;;24.60;95.80;;;;;;3528501;40;20490;-62
2021/07/31 02:34:18;;;;;;;7.67;7.47;;;24.60;95.90;;;;;;3544293;40;20820;-62
2021/07/31 02:36:47;;;;;;;7.23;7.03;;;24.60;95.90;;;;;;3536624;40;20549;-62
2021/07/31 02:39:25;;;;;;;7.30;7.10;;;24.60;95.90;;;;;;3537096;40;20470;-62
2021/07/31 02:41:55;;;;;;;7.40;7.20;;;24.60;95.80;;;;;;3536389;40;20534;-62
2021/07/31 02:44:24;;;;;;;8.03;7.73;;;24.60;95.80;;;;;;3536400;40;20466;-62
2021/07/31 02:46:55;;;;;;;7.60;7.40;;;24.60;95.90;;;;;;3537229;40;20477;-62
2021/07/31 02:49:23;;;;;;;7.80;7.60;;;24.60;95.80;;;;;;3535783;40;20474;-62
2021/07/31 02:51:52;;;;;;;7.77;7.57;;;24.60;95.80;;;;;;3536627;40;20475;-62
2021/07/31 02:54:30;;;;;;;7.50;7.30;;;24.60;95.80;;;;;;3535688;40;20482;-62
2021/07/31 02:57:05;;;;;;;7.27;7.07;;;24.60;95.80;;;;;;3536278;40;20467;-62
2021/07/31 02:59:33;;;;;;;7.70;7.50;;;24.60;95.80;;;;;;3543546;40;20558;-62
2021/07/31 03:02:00;;;;;;;7.97;7.77;;;24.60;95.80;;;;;;3537108;40;20693;-62
2021/07/31 03:04:28;;;;;;;8.00;7.80;;;24.60;95.80;;;;;;3536989;40;20529;-62
2021/07/31 03:07:08;;;;;;;8.13;7.93;;;24.60;95.80;;;;;;3536322;40;20692;-62
2021/07/31 03:09:37;;;;;;;7.50;7.30;;;24.60;95.80;;;;;;3535862;40;20872;-61
2021/07/31 03:12:06;;;;;;;7.70;7.50;;;24.60;95.80;;;;;;3537127;40;20463;-62
2021/07/31 03:14:36;;;;;;;7.50;7.30;;;24.60;95.80;;;;;;3536734;40;20478;-61
2021/07/31 03:17:03;;;;;;;7.90;7.70;;;24.60;95.80;;;;;;3537209;40;20474;-62
2021/07/31 03:19:31;;;;;;;7.97;7.70;;;24.60;95.80;;;;;;3535182;40;20485;-62
2021/07/31 03:21:59;;;;;;;7.73;7.53;;;24.60;95.80;;;;;;3537308;40;20471;-61
2021/07/31 03:24:34;;;;;;;8.00;7.80;;;24.60;95.80;;;;;;3537595;40;20465;-62
2021/07/31 03:27:07;;;;;;;7.97;7.77;;;24.60;95.80;;;;;;3537256;40;20560;-61
2021/07/31 03:29:54;;;;;;;7.83;7.63;;;24.60;95.80;;;;;;3537152;40;20841;-62
2021/07/31 03:32:23;;;;;;;7.30;7.10;;;24.60;95.80;;;;;;3537493;40;20458;-62
2021/07/31 03:34:50;;;;;;;7.50;7.30;;;24.60;95.80;;;;;;3536807;40;20467;-60
2021/07/31 03:37:18;;;;;;;7.03;6.83;;;24.60;95.80;;;;;;3537388;40;20485;-61
2021/07/31 03:39:46;;;;;;;7.40;7.20;;;24.60;95.80;;;;;;3536343;40;20479;-61
2021/07/31 03:42:14;;;;;;;7.93;7.70;;;24.60;95.80;;;;;;3535822;40;20565;-61
2021/07/31 03:44:45;;;;;;;7.60;7.40;;;24.60;95.80;;;;;;3535811;40;20830;-62
2021/07/31 03:47:13;;;;;;;8.60;8.30;;;24.60;95.80;;;;;;3537021;40;20474;-62
2021/07/31 03:49:40;;;;;;;7.97;7.77;;;24.60;95.80;;;;;;3543740;40;20497;-62
2021/07/31 03:52:07;;;;;;;8.50;8.30;;;24.60;95.80;;;;;;3535597;40;20761;-62
2021/07/31 03:54:37;;;;;;;7.90;7.70;;;24.60;95.80;;;;;;3537013;40;20484;-62
2021/07/31 03:57:05;;;;;;;7.70;7.50;;;24.60;95.80;;;;;;3535527;40;20474;-62
2021/07/31 03:59:43;;;;;;;8.17;7.97;;;24.60;96.10;;;;;;3543957;40;20815;-62
2021/07/31 04:02:10;;;;;;;8.17;7.90;;;24.60;95.80;;;;;;3537069;40;20465;-62
2021/07/31 04:04:39;;;;;;;7.97;7.77;;;24.60;95.80;;;;;;3536385;40;20450;-62
2021/07/31 04:07:08;;;;;;;8.00;7.80;;;24.60;95.80;;;;;;3538089;40;20455;-62
2021/07/31 04:09:54;;;;;;;8.57;8.37;;;24.60;95.80;;;;;;3538285;40;20497;-61
2021/07/31 04:12:47;;;;;;;8.37;8.17;;;24.60;95.80;;;;;;3530214;40;20774;-62
2021/07/31 04:15:41;;;;;;;8.60;8.40;;;24.60;95.80;;;;;;3528997;40;20726;-62
2021/07/31 04:18:11;;;;;;;8.67;8.37;;;24.60;95.80;;;;;;3536968;40;20779;-62
2021/07/31 04:20:40;;;;;;;8.00;7.80;;;24.60;95.80;;;;;;3537811;40;20805;-62
2021/07/31 04:23:08;;;;;;;8.30;8.10;;;24.60;95.80;;;;;;3537940;40;20622;-62
2021/07/31 04:25:49;;;;;;;8.17;7.97;;;24.60;95.80;;;;;;3521255;40;20472;-62
2021/07/31 04:28:16;;;;;;;8.20;8.00;;;24.60;95.80;;;;;;3537204;40;20502;-62
2021/07/31 04:30:45;;;;;;;8.77;8.53;;;24.60;95.80;;;;;;3537657;40;20661;-62
2021/07/31 04:33:12;;;;;;;8.03;7.83;;;24.60;95.90;;;;;;3537800;40;20525;-62
2021/07/31 04:35:39;;;;;;;8.20;8.00;;;24.60;96.00;;;;;;3537637;40;20470;-61
2021/07/31 04:38:06;;;;;;;7.90;7.70;;;24.60;95.80;;;;;;3536614;40;20471;-62
2021/07/31 04:40:33;;;;;;;7.90;7.70;;;24.60;95.80;;;;;;3537532;40;20486;-62
2021/07/31 04:43:01;;;;;;;8.10;7.90;;;24.60;95.80;;;;;;3538381;40;20732;-62
2021/07/31 04:45:28;;;;;;;7.80;7.60;;;24.60;95.80;;;;;;3538127;40;20759;-62
2021/07/31 04:47:56;;;;;;;7.87;7.67;;;24.60;95.80;;;;;;3537513;40;20467;-62
2021/07/31 04:50:24;;;;;;;7.90;7.70;;;24.60;95.80;;;;;;3527226;40;20469;-61
2021/07/31 04:52:51;;;;;;;8.10;7.90;;;24.60;95.80;;;;;;3537173;40;20900;-62
2021/07/31 04:55:18;;;;;;;7.90;7.70;;;24.60;95.80;;;;;;3537783;40;20467;-62
2021/07/31 04:57:45;;;;;;;8.03;7.83;;;24.60;95.80;;;;;;3537336;40;20446;-62
2021/07/31 05:00:13;;;;;;;8.57;8.30;;;24.60;95.80;;;;;;3535756;40;20612;-62
2021/07/31 05:02:40;;;;;;;8.10;7.90;;;24.60;95.80;;;;;;3537359;40;20488;-62
2021/07/31 05:05:10;;;;;;;8.27;8.03;;;24.60;95.80;;;;;;3536942;40;20462;-62
2021/07/31 05:07:37;;;;;;;8.30;8.10;;;24.60;95.80;;;;;;3536982;40;20514;-62
2021/07/31 05:10:05;;;;;;;8.20;8.00;;;24.60;95.80;;;;;;3537032;40;20515;-62
2021/07/31 05:12:32;;;;;;;8.00;7.80;;;24.60;95.80;;;;;;3536518;40;20471;-62
2021/07/31 05:14:59;;;;;;;8.50;8.30;;;24.60;95.80;;;;;;3536570;40;20494;-61
2021/07/31 05:17:26;;;;;;;8.37;8.17;;;24.60;95.80;;;;;;3536798;40;20462;-62
2021/07/31 05:19:54;;;;;;;8.13;7.93;;;24.60;95.80;;;;;;3537409;40;20475;-62
2021/07/31 05:22:22;;;;;;;7.83;7.63;;;24.60;95.80;;;;;;3537353;40;20856;-62
2021/07/31 05:24:54;;;;;;;8.50;8.20;;;24.60;95.80;;;;;;3536546;40;20493;-61
2021/07/31 05:27:21;;;;;;;8.10;7.90;;;24.60;95.80;;;;;;3536677;40;20498;-62
2021/07/31 05:29:48;;;;;;;7.80;7.60;;;24.60;95.80;;;;;;3535794;40;20489;-62
2021/07/31 05:32:16;;;;;;;7.90;7.70;;;24.60;96.10;;;;;;3526844;40;20649;-62
2021/07/31 05:34:44;;;;;;;7.90;7.70;;;24.60;95.80;;;;;;3536610;40;20474;-62
2021/07/31 05:37:11;;;;;;;7.80;7.60;;;24.60;95.80;;;;;;3536903;40;20661;-62
2021/07/31 05:39:40;;;;;;;8.20;7.90;;;24.60;95.80;;;;;;3527990;40;20474;-62
2021/07/31 05:42:07;;;;;;;7.80;7.60;;;24.60;95.80;;;;;;3536497;40;20473;-62
2021/07/31 05:44:34;;;;;;;7.70;7.50;;;24.60;95.80;;;;;;3536006;40;20754;-62
2021/07/31 05:47:01;;;;;;;8.17;7.97;;;24.60;95.80;;;;;;3535392;40;21106;-62
2021/07/31 05:49:30;;;;;;;7.90;7.70;;;24.60;95.80;;;;;;3534178;40;20522;-62
2021/07/31 05:51:58;;;;;;;8.07;7.87;;;24.60;95.80;;;;;;3534027;40;20780;-62
2021/07/31 05:54:25;;;;;;;7.50;7.30;;;24.60;95.80;;;;;;3535645;40;20679;-62
2021/07/31 05:56:53;;;;;;;8.30;8.10;;;24.60;95.80;;;;;;3535386;40;20451;-62
2021/07/31 05:59:20;;;;;;;7.60;7.40;;;24.60;95.80;;;;;;3535014;40;20466;-62
2021/07/31 06:01:48;;;;;;;7.23;7.03;;;24.60;95.80;;;;;;3535711;40;20466;-62
2021/07/31 06:04:15;;;;;;;7.53;7.33;;;24.60;95.80;;;;;;3536345;40;20494;-61
2021/07/31 06:06:42;;;;;;;7.40;7.20;;;24.60;95.80;;;;;;3535606;40;20512;-62
2021/07/31 06:09:10;;;;;;;7.90;7.70;;;24.60;95.80;;;;;;3535221;40;20542;-62
2021/07/31 06:11:37;;;;;;;8.40;8.10;;;24.60;95.80;;;;;;3535103;40;20462;-62
2021/07/31 06:14:05;;;;;;;8.33;8.03;;;24.60;95.80;;;;;;3535876;40;20626;-62
2021/07/31 06:16:33;;;;;;;7.73;7.53;;;24.60;95.80;;;;;;3534277;40;20783;-62
2021/07/31 06:19:00;;;;;;;8.20;8.00;;;24.60;95.80;;;;;;3535932;40;20479;-62
2021/07/31 06:21:27;;;;;;;8.00;7.80;;;24.60;95.80;;;;;;3536059;40;20822;-62
2021/07/31 06:23:55;;;;;;;7.90;7.70;;;24.60;95.80;;;;;;3535580;40;20459;-62
2021/07/31 06:26:22;;;;;;;8.57;8.27;;;24.70;95.90;;;;;;3535562;40;20935;-62
2021/07/31 06:28:49;;;;;;;8.30;8.10;;;24.60;95.80;;;;;;3535652;40;20458;-62
2021/07/31 06:31:17;;;;;;;8.50;8.20;;;24.60;95.80;;;;;;3535569;40;20477;-62
2021/07/31 06:33:44;;;;;;;8.20;8.00;;;24.60;95.80;;;;;;3535255;40;20490;-62
2021/07/31 06:36:11;;;;;;;7.90;7.70;;;24.60;95.80;;;;;;3535555;40;20764;-62
2021/07/31 06:38:39;;;;;;;8.33;8.10;;;24.70;95.80;;;;;;3535301;40;20703;-62
2021/07/31 06:41:06;;;;;;;8.03;7.83;;;24.70;95.80;;;;;;3534427;40;21014;-61
2021/07/31 06:43:33;;;;;;;7.97;7.77;;;24.70;95.80;;;;;;3535997;40;20458;-62
2021/07/31 06:46:10;;;;;;;7.97;7.77;;;24.70;95.80;;;;;;3535074;40;20475;-62
2021/07/31 06:48:38;;;;;;;8.23;8.03;;;24.70;95.90;;;;;;3535132;40;20466;-62
2021/07/31 06:51:06;;;;;;;8.33;8.13;;;24.70;95.80;;;;;;3534648;40;20514;-62
2021/07/31 06:53:33;;;;;;;8.20;8.00;;;24.70;95.80;;;;;;3534913;40;20865;-62
2021/07/31 06:56:01;;;;;;;8.20;8.00;;;24.70;95.80;;;;;;3534742;40;20478;-62
2021/07/31 06:58:28;;;;;;;8.60;8.30;;;24.70;95.80;;;;;;3534142;40;20860;-61
2021/07/31 07:00:56;;;;;;;8.30;8.07;;;24.70;95.80;;;;;;3524783;40;20548;-62
2021/07/31 07:03:23;;;;;;;8.17;7.97;;;24.70;95.80;;;;;;3525495;40;20490;-62
2021/07/31 07:05:52;;;;;;;7.60;7.40;;;24.70;95.90;;;;;;3532835;40;20782;-62
2021/07/31 07:08:19;;;;;;;7.80;7.60;;;24.70;95.90;;;;;;3533795;40;20470;-62
2021/07/31 07:10:46;;;;;;;7.80;7.60;;;24.60;95.80;;;;;;3533853;40;20616;-62
2021/07/31 07:13:13;;;;;;;7.80;7.60;;;24.70;95.90;;;;;;3533643;40;20482;-62
2021/07/31 07:15:40;;;;;;;8.20;8.00;;;24.70;95.80;;;;;;3534322;40;20543;-62
2021/07/31 07:18:07;;;;;;;8.00;7.80;;;24.70;95.90;;;;;;3534727;40;20596;-62
2021/07/31 07:20:35;;;;;;;8.20;8.00;;;24.70;95.90;;;;;;3533985;40;20528;-60
2021/07/31 07:23:03;;;;;;;8.47;8.17;;;24.70;95.90;;;;;;3534269;40;20450;-61
2021/07/31 07:25:31;;;;;;;7.83;7.63;;;24.70;95.90;;;;;;3535065;40;20489;-61
2021/07/31 07:27:58;;;;;;;7.87;7.67;;;24.70;95.80;;;;;;3533734;40;20470;-62
2021/07/31 07:30:25;;;;;;;8.00;7.80;;;24.70;95.80;;;;;;3533205;40;20482;-61
2021/07/31 07:32:53;;;;;;;8.03;7.83;;;24.70;95.80;;;;;;3532789;40;20714;-62
2021/07/31 07:35:21;;;;;;;8.50;8.30;;;24.70;95.80;;;;;;3532371;40;20490;-62
2021/07/31 07:37:48;;;;;;;8.23;8.03;;;24.70;95.80;;;;;;3531912;40;20764;-62
2021/07/31 07:40:17;;;;;;;8.10;7.90;;;24.70;95.80;;;;;;3531843;40;20479;-62
2021/07/31 07:42:45;;;;;;;8.40;8.20;;;24.70;95.80;;;;;;3531442;40;20466;-61
2021/07/31 07:45:13;;;;;;;8.03;7.83;;;24.70;95.80;;;;;;3532217;40;20795;-61
2021/07/31 07:47:40;;;;;;;8.13;7.93;;;24.70;95.80;;;;;;3522909;40;20684;-62
2021/07/31 07:50:08;;;;;;;8.17;7.97;;;24.70;95.80;;;;;;3531966;40;20488;-62
2021/07/31 07:52:35;;;;;;;7.70;7.50;;;24.70;95.80;;;;;;3532322;40;20592;-62
2021/07/31 07:55:02;;;;;;;7.93;7.73;;;24.70;95.80;;;;;;3531915;40;20470;-62
2021/07/31 07:57:31;;;;;;;7.60;7.40;;;24.70;95.80;;;;;;3533414;40;20775;-62
2021/07/31 07:59:58;;;;;;;7.53;7.33;;;24.70;95.80;;;;;;3533502;40;20483;-62
2021/07/31 08:02:25;;;;;;;7.93;7.73;;;24.70;95.80;;;;;;3532918;40;20800;-62
2021/07/31 08:04:52;;;;;;;8.10;7.90;;;24.70;95.80;;;;;;3532808;40;20471;-62
2021/07/31 08:07:20;;;;;;;7.50;7.30;;;24.70;95.80;;;;;;3533020;40;20578;-61
2021/07/31 08:09:47;;;;;;;8.47;8.27;;;24.70;95.80;;;;;;3533234;40;20463;-60
2021/07/31 08:12:14;;;;;;;8.40;8.20;;;24.70;95.80;;;;;;3532625;40;20666;-62
2021/07/31 08:14:43;;;;;;;8.17;7.97;;;24.70;95.80;;;;;;3522765;40;20502;-62
2021/07/31 08:17:11;;;;;;;8.10;7.90;;;24.70;95.80;;;;;;3532587;40;20451;-61
2021/07/31 08:19:38;;;;;;;7.90;7.70;;;24.70;95.80;;;;;;3523578;40;20577;-62
2021/07/31 08:22:05;;;;;;;7.83;7.63;;;24.70;95.80;;;;;;3531950;40;20524;-61
2021/07/31 08:24:32;;;;;;;8.40;8.20;;;24.70;95.80;;;;;;3532066;40;20473;-62
2021/07/31 08:27:00;;;;;;;8.27;8.07;;;24.70;95.90;;;;;;3532560;40;20473;-62
2021/07/31 08:29:27;;;;;;;8.43;8.23;;;24.70;95.80;;;;;;3532217;40;20559;-62
2021/07/31 08:31:55;;;;;;;8.27;8.07;;;24.70;95.90;;;;;;3531268;40;20511;-61
2021/07/31 08:34:23;;;;;;;7.80;7.60;;;24.70;95.90;;;;;;3532836;40;20960;-62
2021/07/31 08:36:51;;;;;;;8.23;8.03;;;24.70;95.80;;;;;;3532260;40;20485;-62
2021/07/31 08:39:18;;;;;;;8.67;8.40;;;24.70;95.90;;;;;;3531323;40;20478;-62
2021/07/31 08:41:47;;;;;;;7.93;7.73;;;24.70;95.90;;;;;;3531267;40;20458;-62
2021/07/31 08:44:14;;;;;;;9.07;8.80;;;24.70;95.90;;;;;;3530763;40;20485;-61
2021/07/31 08:46:44;;;;;;;9.53;9.23;;;24.70;95.90;;;;;;3523704;40;20462;-62
2021/07/31 08:49:19;;;;;;;9.43;9.13;;;24.70;95.80;;;;;;3532337;40;20451;-61
2021/07/31 08:51:47;;;;;;;8.33;8.13;;;24.70;95.80;;;;;;3532195;40;20548;-61
2021/07/31 08:54:14;;;;;;;8.03;7.83;;;24.70;95.80;;;;;;3523781;40;20490;-62
2021/07/31 08:56:43;;;;;;;7.93;7.73;;;24.70;95.80;;;;;;3533027;40;20478;-62
2021/07/31 08:59:11;;;;;;;8.20;8.00;;;24.70;95.80;;;;;;3531951;40;20466;-62
2021/07/31 09:01:38;;;;;;;7.67;7.47;;;24.70;95.80;;;;;;3532571;40;20558;-62
2021/07/31 09:04:15;;;;;;;8.20;8.00;;;24.70;95.80;;;;;;3532526;40;20638;-61
2021/07/31 09:06:44;;;;;;;8.30;8.10;;;24.70;95.80;;;;;;3532428;40;20766;-62
2021/07/31 09:09:12;;;;;;;8.23;8.03;;;24.70;95.90;;;;;;3533254;40;20602;-62
2021/07/31 09:11:55;;;;;;;7.97;7.77;;;24.70;95.90;;;;;;3534360;40;20471;-62
2021/07/31 09:14:22;;;;;;;8.20;8.00;;;24.70;95.90;;;;;;3532900;40;20502;-62
2021/07/31 09:16:50;;;;;;;8.10;7.90;;;24.70;95.90;;;;;;3524420;40;20522;-62
2021/07/31 09:19:19;;;;;;;8.20;8.00;;;24.70;96.20;;;;;;3533465;40;20545;-60
2021/07/31 09:21:47;;;;;;;9.07;8.77;;;24.70;95.90;;;;;;3533200;40;20470;-62
2021/07/31 09:24:16;;;;;;;8.33;8.13;;;24.70;95.90;;;;;;3533455;40;20459;-62
2021/07/31 09:26:47;;;;;;;8.77;8.47;;;24.70;95.90;;;;;;3533503;40;20478;-62
2021/07/31 09:29:16;;;;;;;8.50;8.30;;;24.70;95.80;;;;;;3534195;40;20466;-62
2021/07/31 09:31:51;;;;;;;8.50;8.20;;;24.70;95.90;;;;;;3524184;40;20675;-62
2021/07/31 09:34:29;;;;;;;8.50;8.23;;;24.70;95.90;;;;;;3533408;40;21078;-61
2021/07/31 09:37:09;;;;;;;8.63;8.43;;;24.70;95.90;;;;;;3532838;40;20542;-62
2021/07/31 09:39:51;;;;;;;8.83;8.53;;;24.70;95.90;;;;;;3531808;40;20498;-62
2021/07/31 09:42:26;;;;;;;9.53;9.23;;;24.70;95.90;;;;;;3532874;40;20487;-62
2021/07/31 09:44:53;;;;;;;9.00;8.70;;;24.70;95.80;;;;;;3532731;40;20514;-62
2021/07/31 09:47:20;;;;;;;8.97;8.73;;;24.70;96.10;;;;;;3532157;40;20684;-62
2021/07/31 09:49:50;;;;;;;9.00;8.80;;;24.70;95.90;;;;;;3523793;40;20495;-62
2021/07/31 09:52:21;;;;;;;8.80;8.60;;;24.70;95.90;;;;;;3532671;40;20629;-62
2021/07/31 09:54:48;;;;;;;8.53;8.33;;;24.70;95.90;;;;;;3522752;40;20490;-61
2021/07/31 09:57:16;;;;;;;8.40;8.20;;;24.70;95.80;;;;;;3522098;40;20478;-62
2021/07/31 09:59:47;;;;;;;8.40;8.20;;;24.70;95.80;;;;;;3531348;40;20497;-61
2021/07/31 10:02:17;;;;;;;8.97;8.67;;;24.70;95.90;;;;;;3531944;40;20499;-62
2021/07/31 10:04:45;;;;;;;8.43;8.23;;;24.70;95.80;;;;;;3532685;40;20879;-62
2021/07/31 10:07:14;;;;;;;9.07;8.77;;;24.70;95.80;;;;;;3533151;40;20473;-62
2021/07/31 10:09:42;;;;;;;8.50;8.30;;;24.70;95.80;;;;;;3531936;40;20512;-61
2021/07/31 10:12:11;;;;;;;9.03;8.73;;;24.70;95.90;;;;;;3531167;40;20462;-62
2021/07/31 10:14:40;;;;;;;8.70;8.40;;;24.70;95.90;;;;;;3531175;40;20506;-62
2021/07/31 10:17:08;;;;;;;9.10;8.90;;;24.70;95.90;;;;;;3532251;40;20826;-62
2021/07/31 10:19:43;;;;;;;9.17;8.87;;;24.70;95.80;;;;;;3531329;40;20497;-62
2021/07/31 10:22:11;;;;;;;9.40;9.10;;;24.70;95.90;;;;;;3531311;40;20514;-61
2021/07/31 10:25:06;;;;;;;9.10;8.90;;;24.70;95.90;;;;;;3530485;40;20737;-61
2021/07/31 10:27:35;;;;;;;9.13;8.90;;;24.70;95.90;;;;;;3530954;40;20814;-62
2021/07/31 10:30:03;;;;;;;9.00;8.80;;;24.70;95.80;;;;;;3522385;40;20479;-62
2021/07/31 10:32:40;;;;;;;9.33;9.03;;;24.70;95.80;;;;;;3531416;40;20458;-62
2021/07/31 10:35:22;;;;;;;9.30;9.00;;;24.70;95.90;;;;;;3529821;40;20490;-61
2021/07/31 10:37:51;;;;;;;8.60;8.40;;;24.70;95.90;;;;;;3531317;40;20566;-62
2021/07/31 10:40:46;;;;;;;9.10;8.87;;;24.70;95.80;;;;;;3530914;40;20515;-61
2021/07/31 10:43:15;;;;;;;8.70;8.50;;;24.70;95.90;;;;;;3531301;40;20481;-62
2021/07/31 10:45:42;;;;;;;8.07;7.87;;;24.70;95.90;;;;;;3522113;40;20785;-62
2021/07/31 10:48:25;;;;;;;8.10;7.90;;;24.70;95.90;;;;;;3531030;40;20471;-62
2021/07/31 10:50:52;;;;;;;8.30;8.10;;;24.70;95.90;;;;;;3523455;40;20930;-62
2021/07/31 10:53:21;;;;;;;8.60;8.40;;;24.70;95.90;;;;;;3522786;40;20612;-62
2021/07/31 10:56:05;;;;;;;8.30;8.10;;;24.70;95.90;;;;;;3533351;40;20840;-61
2021/07/31 10:58:33;;;;;;;8.20;8.00;;;24.70;95.90;;;;;;3531979;40;20700;-62
2021/07/31 11:01:26;;;;;;;8.00;7.80;;;24.70;95.90;;;;;;3531786;40;20563;-62
2021/07/31 11:03:53;;;;;;;8.27;8.07;;;24.70;95.90;;;;;;3524095;40;20747;-62
2021/07/31 11:06:20;;;;;;;7.40;7.20;;;24.70;95.90;;;;;;3530973;40;20512;-62
2021/07/31 11:09:11;;;;;;;7.60;7.40;;;24.70;95.90;;;;;;3530495;40;20502;-62
2021/07/31 11:11:40;;;;;;;8.03;7.83;;;24.70;95.90;;;;;;3532393;40;20462;-61
2021/07/31 11:14:08;;;;;;;8.00;7.80;;;24.70;95.90;;;;;;3523205;40;20534;-60
2021/07/31 11:16:35;;;;;;;7.80;7.60;;;24.70;96.20;;;;;;3531518;40;20549;-62
2021/07/31 11:19:03;;;;;;;8.20;8.00;;;24.70;95.90;;;;;;3531562;40;20708;-62
2021/07/31 11:21:32;;;;;;;8.27;8.07;;;24.70;95.80;;;;;;3532194;40;20741;-62
2021/07/31 11:24:01;;;;;;;8.00;7.80;;;24.70;95.90;;;;;;3522749;40;20494;-61
2021/07/31 11:26:45;;;;;;;8.23;8.03;;;24.70;95.90;;;;;;3530908;40;20814;-61
2021/07/31 11:29:17;;;;;;;8.63;8.43;;;24.70;95.90;;;;;;3530191;40;20561;-62
2021/07/31 11:31:46;;;;;;;8.40;8.20;;;24.70;95.90;;;;;;3531344;40;21006;-61
2021/07/31 11:34:13;;;;;;;8.57;8.37;;;24.70;95.90;;;;;;3522375;40;20483;-62
2021/07/31 11:36:43;;;;;;;8.80;8.50;;;24.70;95.90;;;;;;3532213;40;21132;-62
2021/07/31 11:39:11;;;;;;;8.70;8.40;;;24.70;95.90;;;;;;3531786;40;20471;-62
2021/07/31 11:41:40;;;;;;;8.70;8.40;;;24.70;95.90;;;;;;3531653;40;20490;-62
2021/07/31 11:44:10;;;;;;;8.63;8.33;;;24.70;95.90;;;;;;3531652;40;20475;-62
2021/07/31 11:46:39;;;;;;;9.07;8.77;;;24.70;95.90;;;;;;3530889;40;20509;-62
2021/07/31 11:49:08;;;;;;;8.80;8.60;;;24.70;95.90;;;;;;3531466;40;20739;-62
2021/07/31 11:51:46;;;;;;;8.50;8.30;;;24.70;95.90;;;;;;3531740;40;21043;-62
2021/07/31 11:54:14;;;;;;;8.17;7.97;;;24.70;95.90;;;;;;3523348;40;20940;-61
2021/07/31 11:56:44;;;;;;;7.70;7.50;;;24.70;95.90;;;;;;3531596;40;20466;-62
2021/07/31 11:59:22;;;;;;;8.43;8.23;;;24.70;95.90;;;;;;3532126;40;20499;-62
2021/07/31 12:01:52;;;;;;;9.10;8.80;;;24.80;95.90;;;;;;3531175;40;20469;-61
2021/07/31 12:04:44;;;;;;;8.33;8.13;;;24.80;95.90;;;;;;3530929;40;20543;-62
2021/07/31 12:07:13;;;;;;;8.50;8.30;;;24.70;95.90;;;;;;3530806;40;20501;-62
2021/07/31 12:09:41;;;;;;;8.10;7.90;;;24.80;95.90;;;;;;3522389;40;20462;-62
2021/07/31 12:12:24;;;;;;;8.10;7.90;;;24.70;95.80;;;;;;3531800;40;20472;-62
2021/07/31 12:15:13;;;;;;;7.77;7.57;;;24.70;95.90;;;;;;3531675;40;20470;-62
2021/07/31 12:17:45;;;;;;;7.90;7.70;;;24.70;95.90;;;;;;3530376;40;20665;-62
2021/07/31 12:20:13;;;;;;;7.80;7.60;;;24.70;95.90;;;;;;3521884;40;20541;-62
2021/07/31 12:22:53;;;;;;;7.93;7.73;;;24.70;95.80;;;;;;3531756;40;20450;-62
2021/07/31 12:25:22;;;;;;;7.83;7.63;;;24.70;95.90;;;;;;3530050;40;20481;-62
2021/07/31 12:27:54;;;;;;;7.80;7.60;;;24.70;95.90;;;;;;3532040;40;21009;-62
2021/07/31 12:30:28;;;;;;;7.37;7.17;;;24.70;95.90;;;;;;3522391;40;20482;-62
2021/07/31 12:33:03;;;;;;;8.13;7.83;;;24.80;95.90;;;;;;3532043;40;20647;-62
2021/07/31 12:35:39;;;;;;;8.13;7.93;;;24.80;95.90;;;;;;3532785;40;20792;-62
2021/07/31 12:38:09;;;;;;;8.30;8.10;;;24.80;95.90;;;;;;3515978;40;20845;-62
2021/07/31 12:40:37;;;;;;;8.30;8.07;;;24.70;95.90;;;;;;3532830;40;20739;-61
2021/07/31 12:43:07;;;;;;;7.30;7.10;;;24.80;95.90;;;;;;3531850;40;20462;-62
2021/07/31 12:45:36;;;;;;;7.73;7.53;;;24.80;95.90;;;;;;3532581;40;20474;-62
2021/07/31 12:48:04;;;;;;;7.80;7.60;;;24.80;95.90;;;;;;3532841;40;20457;-62
2021/07/31 12:50:32;;;;;;;7.93;7.73;;;24.80;95.90;;;;;;3532752;40;20852;-60
2021/07/31 12:53:01;;;;;;;8.60;8.40;;;24.80;95.90;;;;;;3533312;40;20467;-61
2021/07/31 12:55:29;;;;;;;8.47;8.17;;;24.80;95.90;;;;;;3534350;40;20518;-60
2021/07/31 12:57:58;;;;;;;8.30;8.10;;;24.80;95.90;;;;;;3534004;40;20455;-62
2021/07/31 13:00:27;;;;;;;8.30;8.10;;;24.80;95.90;;;;;;3532907;40;20463;-61
2021/07/31 13:02:56;;;;;;;8.00;7.80;;;24.80;95.90;;;;;;3532496;40;20477;-61